Time;durP1;ratioP1;P1;durP2;ratioP2;P2;SDS_P1;SDS_P2;PMS_P1;PMS_P2;Temp;Humidity;BMP_temperature;BMP_pressure;BME280_temperature;BME280_humidity;BME280_pressure;Samples;Min_cycle;Max_cycle;Signal;HPM_P1;HPM_P2
2024/02/26 00:00:15;;;;;;;1.53;1.43;;;;;;;5.02;76.85;99461.41;5092816;28;20221;-74
2024/02/26 00:02:42;;;;;;;1.70;1.50;;;;;;;5.06;76.73;99476.03;5092733;28;20204;-72
2024/02/26 00:05:09;;;;;;;1.57;1.47;;;;;;;5.05;76.35;99472.56;5092359;28;20275;-75
2024/02/26 00:07:35;;;;;;;1.60;1.50;;;;;;;5.07;76.16;99477.72;5092935;28;20258;-74
2024/02/26 00:10:01;;;;;;;1.40;1.30;;;;;;;5.11;76.05;99485.44;5091872;28;20200;-73
2024/02/26 00:12:28;;;;;;;2.60;1.80;;;;;;;5.00;76.34;99497.66;5092465;28;20221;-74
2024/02/26 00:14:54;;;;;;;3.80;1.70;;;;;;;4.90;77.52;99491.72;5091663;28;20224;-74
2024/02/26 00:17:22;;;;;;;1.53;1.43;;;;;;;4.98;76.81;99476.13;5091981;28;20266;-75
2024/02/26 00:19:48;;;;;;;1.90;1.60;;;;;;;4.85;77.85;99475.38;5092756;28;20228;-73
2024/02/26 00:22:14;;;;;;;1.80;1.70;;;;;;;4.81;78.19;99455.59;5092087;28;20208;-73
2024/02/26 00:24:41;;;;;;;2.03;1.40;;;;;;;4.83;77.25;99450.44;5091751;28;20232;-73
2024/02/26 00:27:08;;;;;;;2.60;1.40;;;;;;;4.69;78.50;99453.16;5091357;28;20208;-73
2024/02/26 00:29:34;;;;;;;1.90;1.80;;;;;;;4.65;79.16;99423.91;5091414;28;20200;-74
2024/02/26 00:32:00;;;;;;;2.43;1.27;;;;;;;4.62;79.28;99415.31;5091612;28;20634;-74
2024/02/26 00:34:28;;;;;;;2.27;1.70;;;;;;;4.64;79.14;99393.78;5092409;28;20216;-74
2024/02/26 00:36:54;;;;;;;2.70;1.50;;;;;;;4.67;78.69;99410.97;5091935;28;20204;-74
2024/02/26 00:39:21;;;;;;;1.50;1.40;;;;;;;4.70;77.89;99422.13;5083389;28;20281;-74
2024/02/26 00:41:47;;;;;;;1.70;1.57;;;;;;;4.65;78.04;99421.31;5091443;28;20222;-74
2024/02/26 00:44:13;;;;;;;1.67;1.53;;;;;;;4.66;78.63;99424.75;5091938;28;20220;-74
2024/02/26 00:46:40;;;;;;;2.73;1.87;;;;;;;4.60;78.75;99415.38;5090937;28;20412;-74
2024/02/26 00:49:06;;;;;;;1.60;1.50;;;;;;;4.57;78.07;99418.81;5091964;28;20642;-74
2024/02/26 00:51:34;;;;;;;1.53;1.43;;;;;;;4.50;79.82;99403.41;5091399;28;20200;-74
2024/02/26 00:54:00;;;;;;;1.60;1.50;;;;;;;4.51;78.89;99389.63;5091644;28;20232;-74
2024/02/26 00:56:26;;;;;;;1.77;1.67;;;;;;;4.57;78.05;99403.31;5091368;28;20257;-75
2024/02/26 00:58:53;;;;;;;1.87;1.60;;;;;;;4.54;78.51;99407.69;5089955;28;20211;-75
2024/02/26 01:01:19;;;;;;;1.53;1.43;;;;;;;4.29;80.28;99397.59;5091667;28;20220;-76
2024/02/26 01:03:46;;;;;;;2.60;1.60;;;;;;;4.44;79.75;99378.50;5090975;28;20252;-75
2024/02/26 01:06:12;;;;;;;1.77;1.67;;;;;;;4.45;79.44;99375.03;5090765;28;20208;-73
2024/02/26 01:08:40;;;;;;;1.90;1.70;;;;;;;4.38;80.00;99368.25;5091479;28;20200;-73
2024/02/26 01:11:06;;;;;;;2.03;1.70;;;;;;;4.43;79.75;99363.88;5090060;28;20204;-74
2024/02/26 01:13:33;;;;;;;1.70;1.60;;;;;;;4.26;80.97;99363.19;5090708;28;20232;-74
2024/02/26 01:16:00;;;;;;;2.30;2.10;;;;;;;4.21;81.78;99344.31;5090138;28;20207;-71
2024/02/26 01:18:26;;;;;;;2.30;1.90;;;;;;;4.24;81.69;99332.22;5090707;28;20204;-74
2024/02/26 01:20:54;;;;;;;2.60;1.70;;;;;;;4.31;81.57;99317.50;5091192;28;20271;-74
2024/02/26 01:23:21;;;;;;;2.50;2.20;;;;;;;4.32;81.25;99327.81;5091113;28;20215;-73
2024/02/26 01:25:49;;;;;;;2.33;2.13;;;;;;;4.27;81.85;99318.41;5090235;28;20767;-74
2024/02/26 01:28:15;;;;;;;2.17;1.97;;;;;;;4.34;80.79;99323.50;5091086;28;20212;-74
2024/02/26 01:30:42;;;;;;;2.23;1.90;;;;;;;4.36;80.22;99331.22;5091705;28;20208;-74
2024/02/26 01:33:08;;;;;;;2.13;1.83;;;;;;;4.40;80.12;99339.78;5089806;28;20204;-74
2024/02/26 01:35:34;;;;;;;2.03;1.90;;;;;;;4.26;80.41;99351.16;5090274;28;20205;-74
2024/02/26 01:38:01;;;;;;;2.10;2.00;;;;;;;4.15;81.62;99335.75;5090253;28;20220;-75
2024/02/26 01:40:28;;;;;;;2.73;2.03;;;;;;;4.22;80.93;99325.34;5090468;28;20287;-75
2024/02/26 01:42:55;;;;;;;2.70;2.30;;;;;;;4.14;81.11;99322.84;5089999;28;20207;-75
2024/02/26 01:45:24;;;;;;;2.43;2.23;;;;;;;4.25;80.59;99315.84;5089417;28;20221;-75
2024/02/26 01:47:51;;;;;;;3.63;2.20;;;;;;;4.30;80.46;99327.00;5090194;28;20280;-75
2024/02/26 01:50:18;;;;;;;2.40;2.20;;;;;;;4.21;81.37;99323.66;5090074;28;20218;-76
2024/02/26 01:52:45;;;;;;;2.00;1.90;;;;;;;4.18;81.27;99322.81;5090374;28;20200;-75
2024/02/26 01:55:11;;;;;;;2.30;2.20;;;;;;;4.32;80.68;99314.03;5081072;28;20231;-75
2024/02/26 01:57:38;;;;;;;2.23;2.03;;;;;;;4.38;79.99;99325.16;5088707;28;20582;-74
2024/02/26 02:00:08;;;;;;;2.47;2.20;;;;;;;4.47;80.00;99328.50;5089823;28;20667;-75
2024/02/26 02:02:35;;;;;;;1.93;1.83;;;;;;;4.35;80.49;99337.25;5090766;28;20200;-74
2024/02/26 02:05:01;;;;;;;2.20;2.00;;;;;;;4.37;81.08;99335.50;5089884;28;20227;-74
2024/02/26 02:07:29;;;;;;;2.00;1.90;;;;;;;4.31;80.96;99340.75;5081487;28;20661;-74
2024/02/26 02:09:55;;;;;;;3.60;1.90;;;;;;;4.34;81.06;99331.25;5090879;28;20204;-75
2024/02/26 02:12:22;;;;;;;2.43;2.20;;;;;;;4.32;80.93;99332.13;5089508;28;20208;-74
2024/02/26 02:14:48;;;;;;;3.67;2.10;;;;;;;4.24;81.63;99331.34;5088913;28;20216;-74
2024/02/26 02:17:16;;;;;;;2.00;1.90;;;;;;;4.19;81.97;99321.09;5088622;28;20207;-74
2024/02/26 02:19:43;;;;;;;2.50;2.30;;;;;;;4.09;83.14;99304.84;5087482;28;20560;-74
2024/02/26 02:22:10;;;;;;;2.33;2.13;;;;;;;4.06;83.75;99285.94;5089517;28;20252;-74
2024/02/26 02:24:37;;;;;;;2.40;2.20;;;;;;;4.12;83.43;99279.00;5089226;28;20262;-72
2024/02/26 02:27:04;;;;;;;3.60;2.03;;;;;;;4.06;83.18;99275.59;5089570;28;20261;-75
2024/02/26 02:29:31;;;;;;;2.27;2.10;;;;;;;4.05;83.39;99259.25;5092664;28;20229;-74
2024/02/26 02:31:58;;;;;;;2.10;1.90;;;;;;;4.05;83.74;99255.84;5092622;28;20203;-73
2024/02/26 02:34:25;;;;;;;2.40;2.10;;;;;;;4.00;83.51;99250.69;5092623;28;21323;-74
2024/02/26 02:36:53;;;;;;;2.40;2.20;;;;;;;4.00;84.18;99237.78;5092254;28;20696;-75
2024/02/26 02:39:21;;;;;;;2.13;2.03;;;;;;;4.00;83.41;99242.09;5092592;28;20211;-73
2024/02/26 02:41:48;;;;;;;2.40;2.20;;;;;;;3.89;83.66;99250.00;5091779;28;20224;-74
2024/02/26 02:44:14;;;;;;;2.87;2.57;;;;;;;3.86;84.15;99243.09;5091928;28;20228;-75
2024/02/26 02:46:40;;;;;;;2.40;2.20;;;;;;;3.85;84.63;99220.75;5092307;28;20196;-73
2024/02/26 02:49:10;;;;;;;2.30;2.20;;;;;;;3.93;84.24;99229.28;5092341;28;20237;-74
2024/02/26 02:51:36;;;;;;;2.67;2.47;;;;;;;3.92;84.15;99234.44;5093029;28;20209;-74
2024/02/26 02:54:02;;;;;;;2.50;2.30;;;;;;;3.96;84.39;99234.41;5092223;28;20287;-74
2024/02/26 02:56:30;;;;;;;2.83;2.60;;;;;;;4.09;84.11;99234.25;5091277;28;20318;-74
2024/02/26 02:58:56;;;;;;;3.17;2.87;;;;;;;4.05;83.41;99243.78;5092285;28;20204;-74
2024/02/26 03:01:23;;;;;;;3.17;2.90;;;;;;;4.03;83.68;99249.84;5091811;28;20223;-75
2024/02/26 03:03:51;;;;;;;3.23;3.03;;;;;;;3.94;84.23;99243.91;5092183;28;20231;-75
2024/02/26 03:06:17;;;;;;;3.30;3.00;;;;;;;4.06;83.99;99240.28;5090597;28;20204;-74
2024/02/26 03:08:45;;;;;;;3.27;3.07;;;;;;;4.08;84.05;99235.13;5092475;28;20658;-75
2024/02/26 03:11:14;;;;;;;3.00;2.80;;;;;;;4.18;83.50;99239.28;5083036;28;20288;-75
2024/02/26 03:13:41;;;;;;;3.20;3.00;;;;;;;4.23;83.01;99254.75;5055876;28;1023769;-74
2024/02/26 03:16:08;;;;;;;3.43;3.00;;;;;;;4.34;81.90;99268.38;5083858;28;20260;-75
2024/02/26 03:18:35;;;;;;;3.53;3.30;;;;;;;4.40;81.52;99293.28;5084557;28;20731;-74
2024/02/26 03:21:02;;;;;;;3.23;2.93;;;;;;;4.44;81.40;99307.88;5093428;28;20291;-72
2024/02/26 03:23:29;;;;;;;3.60;3.30;;;;;;;4.41;82.13;99310.50;5093404;28;20446;-74
2024/02/26 03:25:56;;;;;;;3.50;3.13;;;;;;;4.44;81.21;99313.03;5091517;28;20206;-74
2024/02/26 03:28:22;;;;;;;3.90;3.60;;;;;;;4.46;81.12;99316.44;5085136;28;20211;-72
2024/02/26 03:30:49;;;;;;;4.70;2.90;;;;;;;4.47;81.63;99318.19;5093485;28;20249;-74
2024/02/26 03:33:16;;;;;;;4.20;2.97;;;;;;;4.48;81.28;99322.44;5092349;28;20610;-75
2024/02/26 03:35:42;;;;;;;4.23;3.00;;;;;;;4.50;81.16;99341.38;5091793;28;20266;-75
2024/02/26 03:38:08;;;;;;;5.80;3.30;;;;;;;4.55;80.67;99342.19;5091705;28;20208;-74
2024/02/26 03:40:35;;;;;;;3.63;3.33;;;;;;;4.58;80.97;99353.34;5082884;28;20787;-75
2024/02/26 03:43:02;;;;;;;4.47;3.63;;;;;;;4.60;80.04;99355.94;5091661;28;20402;-74
2024/02/26 03:45:28;;;;;;;4.30;3.90;;;;;;;4.61;79.63;99367.97;5093298;28;20783;-75
2024/02/26 03:47:56;;;;;;;4.10;3.70;;;;;;;4.57;79.92;99367.13;5091050;28;20662;-74
2024/02/26 03:50:22;;;;;;;3.87;3.57;;;;;;;4.60;80.03;99368.84;5092989;28;20226;-75
2024/02/26 03:52:49;;;;;;;3.50;3.30;;;;;;;4.61;80.31;99360.19;5092362;28;20209;-74
2024/02/26 03:55:15;;;;;;;3.20;2.90;;;;;;;4.64;80.21;99378.28;5092068;28;20227;-75
2024/02/26 03:57:41;;;;;;;7.93;3.30;;;;;;;4.65;79.72;99373.94;5091051;28;20265;-74
2024/02/26 04:00:09;;;;;;;6.20;3.40;;;;;;;4.63;80.20;99379.13;5092109;28;20204;-75
2024/02/26 04:02:35;;;;;;;3.83;3.50;;;;;;;4.62;80.16;99374.84;5092511;28;20283;-75
2024/02/26 04:05:03;;;;;;;5.07;4.17;;;;;;;4.58;81.25;99365.44;5092196;28;20288;-74
2024/02/26 04:07:30;;;;;;;4.53;4.13;;;;;;;4.58;81.69;99352.50;5090063;28;20574;-75
2024/02/26 04:09:56;;;;;;;6.93;4.20;;;;;;;4.59;81.37;99338.69;5086682;28;20677;-75
2024/02/26 04:12:23;;;;;;;4.57;4.13;;;;;;;4.64;81.13;99344.66;5090450;28;20204;-75
2024/02/26 04:14:49;;;;;;;5.60;4.03;;;;;;;4.65;81.34;99345.53;5083114;28;20269;-75
2024/02/26 04:17:15;;;;;;;5.30;3.83;;;;;;;4.66;81.31;99347.22;5090474;28;20265;-74
2024/02/26 04:19:42;;;;;;;4.77;4.00;;;;;;;4.76;80.31;99352.25;5091221;28;20249;-75
2024/02/26 04:22:10;;;;;;;3.30;2.83;;;;;;;4.81;80.57;99367.72;5092058;28;20227;-75
2024/02/26 04:24:37;;;;;;;4.40;4.00;;;;;;;4.84;79.98;99377.19;5091700;28;20641;-75
2024/02/26 04:27:04;;;;;;;3.53;3.23;;;;;;;4.82;80.25;99373.75;5091994;28;20648;-74
2024/02/26 04:29:30;;;;;;;3.90;3.57;;;;;;;4.87;80.18;99374.53;5092045;28;20271;-74
2024/02/26 04:31:56;;;;;;;3.50;3.23;;;;;;;4.85;79.84;99392.66;5092349;28;20204;-74
2024/02/26 04:34:23;;;;;;;4.67;3.70;;;;;;;4.84;80.36;99390.94;5090940;28;20702;-75
2024/02/26 04:36:49;;;;;;;3.57;3.27;;;;;;;4.88;80.28;99394.34;5091945;28;20201;-75
2024/02/26 04:39:17;;;;;;;3.40;3.10;;;;;;;4.89;80.63;99398.63;5091484;28;20200;-74
2024/02/26 04:41:43;;;;;;;3.17;2.90;;;;;;;4.94;80.42;99402.03;5090949;28;20216;-75
2024/02/26 04:44:09;;;;;;;3.43;3.10;;;;;;;4.87;80.71;99403.81;5091252;28;20225;-76
2024/02/26 04:46:36;;;;;;;3.40;3.10;;;;;;;4.93;80.45;99405.47;5090482;28;20227;-75
2024/02/26 04:49:02;;;;;;;5.27;3.40;;;;;;;4.97;80.15;99418.38;5091517;28;20254;-75
2024/02/26 04:51:28;;;;;;;3.33;3.13;;;;;;;4.96;80.80;99421.81;5090828;28;20208;-74
2024/02/26 04:53:55;;;;;;;3.73;3.43;;;;;;;4.96;80.80;99421.81;5091365;28;20228;-74
2024/02/26 04:56:22;;;;;;;3.70;3.40;;;;;;;4.96;80.97;99415.81;5090622;28;20208;-74
2024/02/26 04:58:49;;;;;;;3.07;2.87;;;;;;;5.00;80.48;99408.88;5091150;28;20199;-75
2024/02/26 05:01:16;;;;;;;3.20;3.00;;;;;;;5.05;79.98;99422.56;5090980;28;20763;-74
2024/02/26 05:03:43;;;;;;;3.97;2.90;;;;;;;5.07;78.79;99437.19;5083265;28;20593;-75
2024/02/26 05:06:09;;;;;;;3.70;3.40;;;;;;;5.07;79.24;99455.28;5091302;28;20203;-74
2024/02/26 05:08:38;;;;;;;3.63;3.33;;;;;;;5.08;79.62;99456.16;5090523;28;20207;-74
2024/02/26 05:11:04;;;;;;;4.03;3.47;;;;;;;5.09;79.33;99463.88;5090920;28;20257;-73
2024/02/26 05:13:32;;;;;;;3.60;3.30;;;;;;;5.07;79.73;99459.63;5089702;28;20285;-75
2024/02/26 05:15:58;;;;;;;3.40;3.13;;;;;;;5.07;79.71;99451.84;5090776;28;20252;-73
2024/02/26 05:18:25;;;;;;;5.60;4.00;;;;;;;5.09;79.38;99455.28;5082893;28;20212;-73
2024/02/26 05:20:51;;;;;;;3.30;3.03;;;;;;;5.07;79.57;99455.28;5091188;28;20200;-74
2024/02/26 05:23:17;;;;;;;4.47;3.93;;;;;;;5.07;79.98;99454.44;5090338;28;20200;-75
2024/02/26 05:25:46;;;;;;;3.73;3.43;;;;;;;5.04;80.24;99463.09;5082521;28;20273;-74
2024/02/26 05:28:13;;;;;;;4.17;3.87;;;;;;;4.91;81.33;99448.59;5090267;28;20670;-75
2024/02/26 05:30:41;;;;;;;3.80;3.50;;;;;;;4.87;81.70;99432.25;5090873;28;20288;-74
2024/02/26 05:33:07;;;;;;;4.07;3.67;;;;;;;4.91;81.69;99418.41;5082112;28;20206;-72
2024/02/26 05:35:33;;;;;;;4.07;3.77;;;;;;;4.95;81.20;99424.41;5089997;28;20200;-75
2024/02/26 05:37:59;;;;;;;3.83;3.53;;;;;;;4.99;80.44;99436.44;5090436;28;20204;-74
2024/02/26 05:40:26;;;;;;;3.53;3.23;;;;;;;5.03;80.02;99445.00;5090347;28;20678;-75
2024/02/26 05:42:52;;;;;;;3.63;3.33;;;;;;;5.03;80.30;99432.94;5089632;28;20232;-75
2024/02/26 05:45:19;;;;;;;3.83;3.53;;;;;;;5.02;80.67;99443.31;5089194;28;20315;-73
2024/02/26 05:47:46;;;;;;;4.27;3.97;;;;;;;4.97;80.56;99439.06;5082131;28;20200;-74
2024/02/26 05:50:14;;;;;;;3.70;3.43;;;;;;;4.93;81.33;99429.59;5091205;28;20199;-73
2024/02/26 05:52:41;;;;;;;4.30;4.00;;;;;;;4.86;82.47;99409.88;5091422;28;20612;-76
2024/02/26 05:55:07;;;;;;;4.90;4.50;;;;;;;4.83;82.20;99390.97;5091265;28;20226;-74
2024/02/26 05:57:35;;;;;;;4.17;3.87;;;;;;;4.89;82.02;99378.81;5090565;28;20198;-73
2024/02/26 06:00:03;;;;;;;4.10;3.80;;;;;;;4.96;81.75;99393.38;5091359;28;20631;-75
2024/02/26 06:02:30;;;;;;;3.90;3.60;;;;;;;5.02;81.72;99407.97;5091053;28;20273;-72
2024/02/26 06:04:57;;;;;;;8.30;4.07;;;;;;;5.02;81.38;99407.13;5086167;28;20257;-74
2024/02/26 06:07:24;;;;;;;4.30;3.90;;;;;;;5.00;81.89;99416.63;5087887;28;20739;-74
2024/02/26 06:09:50;;;;;;;3.90;3.63;;;;;;;5.06;80.46;99413.97;5091517;28;20201;-73
2024/02/26 06:12:16;;;;;;;4.23;3.93;;;;;;;5.06;80.55;99435.50;5090452;28;20204;-73
2024/02/26 06:14:44;;;;;;;4.77;4.37;;;;;;;5.08;80.71;99448.41;5090984;28;20220;-73
2024/02/26 06:17:11;;;;;;;4.70;4.30;;;;;;;5.07;80.68;99457.88;5090783;28;20204;-74
2024/02/26 06:19:37;;;;;;;4.57;4.23;;;;;;;5.06;80.64;99463.94;5090864;28;20265;-71
2024/02/26 06:22:05;;;;;;;5.00;4.63;;;;;;;5.06;81.25;99468.28;5083139;28;20254;-74
2024/02/26 06:24:31;;;;;;;4.90;4.50;;;;;;;5.04;81.37;99465.69;5090732;28;20777;-72
2024/02/26 06:26:57;;;;;;;5.23;4.73;;;;;;;5.10;81.09;99468.19;5090766;28;20212;-74
2024/02/26 06:29:24;;;;;;;5.20;4.70;;;;;;;5.15;80.26;99473.31;5091209;28;20203;-71
2024/02/26 06:31:50;;;;;;;7.97;4.30;;;;;;;5.15;79.72;99481.94;5090969;28;20615;-73
2024/02/26 06:34:17;;;;;;;6.50;4.47;;;;;;;5.18;79.99;99492.25;5091378;28;20224;-73
2024/02/26 06:36:43;;;;;;;4.90;4.50;;;;;;;5.16;80.11;99498.31;5091003;28;20204;-75
2024/02/26 06:39:12;;;;;;;7.17;4.40;;;;;;;5.15;80.29;99501.75;5091365;28;20205;-73
2024/02/26 06:41:39;;;;;;;5.07;4.70;;;;;;;5.20;80.06;99505.16;5082186;28;20228;-74
2024/02/26 06:44:05;;;;;;;5.80;5.30;;;;;;;5.21;80.19;99516.34;5091342;28;20302;-73
2024/02/26 06:46:32;;;;;;;4.70;4.40;;;;;;;5.22;80.06;99518.94;5090377;28;20235;-72
2024/02/26 06:48:58;;;;;;;4.63;4.27;;;;;;;5.26;80.05;99528.38;5090799;28;20204;-73
2024/02/26 06:51:24;;;;;;;5.20;4.80;;;;;;;5.27;79.42;99545.63;5091111;28;20224;-74
2024/02/26 06:53:51;;;;;;;5.20;4.80;;;;;;;5.30;79.28;99549.91;5082928;28;20224;-74
2024/02/26 06:56:19;;;;;;;5.80;5.30;;;;;;;5.31;79.45;99560.22;5090166;28;20231;-74
2024/02/26 06:58:45;;;;;;;5.53;5.00;;;;;;;5.31;79.33;99562.81;5090538;28;20218;-73
2024/02/26 07:01:13;;;;;;;5.30;4.83;;;;;;;5.33;79.75;99575.72;5090674;28;20211;-72
2024/02/26 07:03:41;;;;;;;5.90;5.40;;;;;;;5.29;80.39;99561.09;5090699;28;20281;-73
2024/02/26 07:06:07;;;;;;;5.80;5.30;;;;;;;5.31;80.15;99560.22;5090933;28;20253;-74
2024/02/26 07:08:33;;;;;;;6.37;5.80;;;;;;;5.33;80.23;99555.00;5090790;28;20253;-72
2024/02/26 07:11:00;;;;;;;6.40;5.90;;;;;;;5.28;81.32;99549.91;5090245;28;20272;-74
2024/02/26 07:13:27;;;;;;;6.60;6.00;;;;;;;5.30;80.93;99542.97;5091923;28;20208;-73
2024/02/26 07:15:54;;;;;;;7.77;7.07;;;;;;;5.30;81.33;99539.53;5095500;28;20200;-74
2024/02/26 07:18:20;;;;;;;6.97;6.47;;;;;;;5.38;80.78;99535.97;5094403;28;20208;-74
2024/02/26 07:20:47;;;;;;;12.33;9.37;;;;;;;5.43;80.48;99543.69;5093999;28;20670;-73
2024/02/26 07:23:13;;;;;;;11.43;10.00;;;;;;;5.47;79.90;99554.84;5094486;28;20226;-74
2024/02/26 07:25:40;;;;;;;9.40;8.60;;;;;;;5.47;80.28;99560.91;5093720;28;20762;-72
2024/02/26 07:28:07;;;;;;;16.77;15.17;;;;;;;5.46;80.61;99560.91;5087688;28;20208;-73
2024/02/26 07:30:34;;;;;;;12.30;10.67;;;;;;;5.51;80.03;99559.09;5094205;28;20619;-73
2024/02/26 07:33:01;;;;;;;9.67;8.73;;;;;;;5.51;79.86;99561.69;5094203;28;20624;-73
2024/02/26 07:35:28;;;;;;;7.67;7.07;;;;;;;5.58;80.31;99560.75;5093785;28;20760;-72
2024/02/26 07:37:54;;;;;;;7.37;6.67;;;;;;;5.60;79.85;99558.16;5086009;28;20328;-73
2024/02/26 07:40:20;;;;;;;7.60;7.00;;;;;;;5.58;80.22;99563.34;5094190;28;20207;-74
2024/02/26 07:42:47;;;;;;;12.93;11.60;;;;;;;5.63;80.41;99568.44;5093224;28;20228;-73
2024/02/26 07:45:15;;;;;;;7.87;6.63;;;;;;;5.64;80.42;99567.59;5094182;28;20240;-74
2024/02/26 07:47:43;;;;;;;10.00;9.10;;;;;;;5.68;80.41;99569.25;5093536;28;20297;-74
2024/02/26 07:50:10;;;;;;;8.33;7.27;;;;;;;5.72;80.19;99566.59;5093746;28;20204;-74
2024/02/26 07:52:37;;;;;;;10.50;9.53;;;;;;;5.75;80.30;99570.91;5093969;28;20204;-72
2024/02/26 07:55:04;;;;;;;8.07;7.37;;;;;;;5.77;80.19;99570.00;5088804;28;20224;-74
2024/02/26 07:57:31;;;;;;;9.30;8.50;;;;;;;5.78;80.43;99570.84;5089711;28;20253;-71
2024/02/26 07:59:57;;;;;;;10.27;9.17;;;;;;;5.80;80.70;99558.72;5093966;28;20204;-74
2024/02/26 08:02:23;;;;;;;7.67;6.97;;;;;;;5.83;80.09;99553.53;5093544;28;20220;-74
2024/02/26 08:04:51;;;;;;;29.47;16.07;;;;;;;5.82;80.45;99556.13;5093208;28;20232;-74
2024/02/26 08:07:17;;;;;;;14.73;13.23;;;;;;;5.85;81.02;99548.34;5093621;28;20195;-77
2024/02/26 08:09:44;;;;;;;16.23;13.67;;;;;;;5.90;80.56;99552.53;5094244;28;20205;-78
2024/02/26 08:12:10;;;;;;;14.87;12.43;;;;;;;5.94;80.64;99551.63;5094472;28;20205;-77
2024/02/26 08:14:36;;;;;;;40.73;21.93;;;;;;;5.98;80.28;99565.41;5094705;28;20289;-79
2024/02/26 08:17:03;;;;;;;24.07;17.13;;;;;;;6.04;79.90;99565.31;5085242;28;20626;-79
2024/02/26 08:19:29;;;;;;;14.27;11.70;;;;;;;6.10;79.13;99574.75;5094009;28;20201;-76
2024/02/26 08:21:57;;;;;;;8.50;7.63;;;;;;;6.13;78.83;99601.47;5093701;28;20273;-75
2024/02/26 08:24:23;;;;;;;51.47;25.37;;;;;;;6.17;79.12;99597.13;5086398;28;20232;-82
2024/02/26 08:26:50;;;;;;;94.03;36.70;;;;;;;6.21;79.23;99595.34;5095896;28;20249;-81
2024/02/26 08:29:16;;;;;;;26.77;16.63;;;;;;;6.28;78.76;99597.81;5098439;28;20208;-77
2024/02/26 08:31:42;;;;;;;26.77;17.33;;;;;;;6.30;79.36;99614.19;5095417;28;20203;-79
2024/02/26 08:34:09;;;;;;;8.10;6.67;;;;;;;6.35;78.59;99622.75;5095476;28;20344;-79
2024/02/26 08:36:35;;;;;;;9.27;7.93;;;;;;;6.35;78.53;99629.69;5094716;28;20262;-75
2024/02/26 08:39:03;;;;;;;9.93;6.77;;;;;;;6.34;78.71;99625.34;5094387;28;20212;-78
2024/02/26 08:41:30;;;;;;;14.57;10.47;;;;;;;6.33;78.37;99621.91;5094871;28;20200;-76
2024/02/26 08:43:58;;;;;;;23.03;14.80;;;;;;;6.36;77.94;99629.66;5093923;28;20707;-77
2024/02/26 08:46:24;;;;;;;8.10;7.10;;;;;;;6.39;77.51;99633.94;5094516;28;20251;-76
2024/02/26 08:48:50;;;;;;;6.07;5.57;;;;;;;6.41;77.85;99647.72;5093629;28;20212;-79
2024/02/26 08:51:17;;;;;;;11.80;9.17;;;;;;;6.36;77.85;99647.81;5094436;28;20205;-78
2024/02/26 08:53:43;;;;;;;10.77;9.57;;;;;;;6.44;78.55;99649.41;5094094;28;20220;-78
2024/02/26 08:56:16;;;;;;;30.87;18.37;;;;;;;6.48;78.21;99651.94;5093306;28;20257;-77
2024/02/26 08:58:42;;;;;;;24.60;17.87;;;;;;;6.58;77.69;99652.66;5090548;28;20250;-77
2024/02/26 09:01:09;;;;;;;5.53;5.10;;;;;;;6.64;76.95;99667.25;5094803;28;20245;-78
2024/02/26 09:03:35;;;;;;;7.37;6.77;;;;;;;6.68;76.52;99687.06;5092448;28;20227;-78
2024/02/26 09:06:02;;;;;;;10.97;9.87;;;;;;;6.73;76.27;99704.28;5093005;28;20674;-78
2024/02/26 09:08:28;;;;;;;13.30;12.00;;;;;;;6.79;76.34;99710.25;5092676;28;20200;-77
2024/02/26 09:10:55;;;;;;;9.50;8.60;;;;;;;6.83;76.11;99722.31;5093334;28;20213;-79
2024/02/26 09:13:23;;;;;;;6.70;6.10;;;;;;;6.83;76.32;99722.31;5094480;28;20215;-78
2024/02/26 09:15:49;;;;;;;6.13;5.60;;;;;;;6.85;75.50;99730.91;5093322;28;20208;-76
2024/02/26 09:18:15;;;;;;;5.97;5.47;;;;;;;6.88;75.48;99734.34;5092500;28;20255;-76
2024/02/26 09:20:42;;;;;;;6.33;5.83;;;;;;;6.90;75.36;99749.88;5092089;28;20230;-74
2024/02/26 09:23:09;;;;;;;4.57;4.23;;;;;;;6.90;75.87;99760.25;5093156;28;20289;-73
2024/02/26 09:25:36;;;;;;;5.20;4.80;;;;;;;6.94;74.82;99769.72;5092873;28;20212;-75
2024/02/26 09:28:03;;;;;;;5.10;4.70;;;;;;;6.97;75.11;99767.91;5093704;28;20193;-78
2024/02/26 09:30:31;;;;;;;4.60;4.27;;;;;;;6.99;75.35;99772.22;5092451;28;20226;-77
2024/02/26 09:32:57;;;;;;;4.63;4.23;;;;;;;7.00;74.90;99776.50;5095970;28;20207;-78
2024/02/26 09:35:24;;;;;;;4.40;4.00;;;;;;;7.03;74.97;99776.47;5095971;28;20263;-77
2024/02/26 09:37:50;;;;;;;4.27;3.97;;;;;;;7.07;74.43;99791.13;5097869;28;20209;-77
2024/02/26 09:40:17;;;;;;;4.60;4.20;;;;;;;7.10;73.95;99798.88;5097825;28;20207;-77
2024/02/26 09:42:45;;;;;;;5.67;5.17;;;;;;;7.18;74.28;99803.97;5097328;28;20623;-78
2024/02/26 09:45:18;;;;;;;4.53;4.20;;;;;;;7.20;74.43;99808.22;5096792;28;20231;-82
2024/02/26 09:47:48;;;;;;;5.40;4.13;;;;;;;7.22;75.63;99798.69;5095986;28;20204;-82
2024/02/26 09:50:17;;;;;;;4.30;4.00;;;;;;;7.31;74.75;99795.94;5096665;28;20253;-81
2024/02/26 09:52:44;;;;;;;4.37;3.83;;;;;;;7.35;74.21;99817.50;5097034;28;20652;-78
2024/02/26 09:55:11;;;;;;;4.13;3.83;;;;;;;7.36;73.87;99835.66;5096211;28;20224;-79
2024/02/26 09:57:38;;;;;;;3.73;3.43;;;;;;;7.27;73.82;99858.31;5094349;28;20714;-80
2024/02/26 10:00:08;;;;;;;4.10;3.80;;;;;;;7.32;73.27;99859.97;5086719;28;20291;-81
2024/02/26 10:02:37;;;;;;;4.47;4.17;;;;;;;7.41;73.31;99874.53;5095799;28;20212;-81
2024/02/26 10:05:06;;;;;;;5.53;4.40;;;;;;;7.46;73.38;99883.13;5094876;28;20223;-80
2024/02/26 10:07:33;;;;;;;4.13;3.83;;;;;;;7.53;72.57;99886.47;5094394;28;20208;-79
2024/02/26 10:10:01;;;;;;;4.10;3.80;;;;;;;7.46;74.07;99893.50;5096347;28;20262;-82
2024/02/26 10:12:31;;;;;;;4.30;4.00;;;;;;;7.53;74.44;99882.16;5095213;28;20204;-79
2024/02/26 10:14:57;;;;;;;4.13;3.83;;;;;;;7.58;74.16;99863.88;5094964;28;20236;-80
2024/02/26 10:17:23;;;;;;;4.20;3.90;;;;;;;7.68;73.07;99872.41;5097098;28;20260;-81
2024/02/26 10:19:51;;;;;;;4.43;4.10;;;;;;;7.69;73.14;99892.28;5098743;28;20257;-79
2024/02/26 10:22:19;;;;;;;4.07;3.67;;;;;;;7.74;73.20;99886.13;5097811;28;20204;-80
2024/02/26 10:24:47;;;;;;;5.00;4.20;;;;;;;7.84;72.39;99891.19;5096471;28;20224;-78
2024/02/26 10:27:14;;;;;;;4.10;3.80;;;;;;;7.87;71.33;99924.91;5094837;28;20262;-78
2024/02/26 10:29:42;;;;;;;4.63;4.23;;;;;;;7.87;71.30;99949.16;5098039;28;20711;-77
2024/02/26 10:32:11;;;;;;;5.20;4.83;;;;;;;7.82;71.39;99956.16;5096870;28;20230;-77
2024/02/26 10:34:38;;;;;;;4.60;4.30;;;;;;;7.81;72.93;99946.66;5097159;28;20246;-80
2024/02/26 10:37:05;;;;;;;4.13;3.83;;;;;;;7.88;71.69;99953.47;5097577;28;20211;-77
2024/02/26 10:39:33;;;;;;;4.97;4.57;;;;;;;7.91;70.95;99966.41;5097239;28;20204;-77
2024/02/26 10:42:04;;;;;;;4.20;3.80;;;;;;;7.93;70.60;99984.59;5096072;28;20211;-77
2024/02/26 10:44:31;;;;;;;4.00;3.60;;;;;;;7.93;70.12;99995.84;5095674;28;20757;-80
2024/02/26 10:46:58;;;;;;;3.77;3.47;;;;;;;7.95;69.80;100004.47;5093769;28;20212;-78
2024/02/26 10:49:25;;;;;;;5.80;3.83;;;;;;;7.91;70.37;100005.41;5097697;28;20278;-78
2024/02/26 10:51:57;;;;;;;3.97;3.67;;;;;;;7.91;70.07;100017.53;5097383;28;20204;-79
2024/02/26 10:54:26;;;;;;;7.53;3.40;;;;;;;7.86;69.44;100019.34;5098804;28;20230;-77
2024/02/26 10:56:56;;;;;;;3.57;3.27;;;;;;;7.85;70.18;100021.09;5095922;28;20280;-78
2024/02/26 10:59:23;;;;;;;3.90;3.60;;;;;;;7.85;70.88;100008.09;5096442;28;20208;-78
2024/02/26 11:01:50;;;;;;;3.47;3.17;;;;;;;7.88;71.13;99981.19;5098472;28;20246;-79
2024/02/26 11:04:17;;;;;;;4.37;3.97;;;;;;;7.91;70.89;99979.41;5098601;28;20299;-78
2024/02/26 11:06:43;;;;;;;3.53;3.23;;;;;;;7.94;70.89;99979.34;5098288;28;20204;-80
2024/02/26 11:09:13;;;;;;;3.20;3.00;;;;;;;7.97;71.71;99973.28;5098990;28;20234;-79
2024/02/26 11:11:41;;;;;;;3.30;3.10;;;;;;;8.04;71.96;99963.63;5098697;28;20585;-78
2024/02/26 11:14:10;;;;;;;4.40;3.53;;;;;;;8.07;73.04;99948.84;5098827;28;20256;-77
2024/02/26 11:16:39;;;;;;;3.93;3.10;;;;;;;8.16;72.18;99938.25;5098038;28;20209;-78
2024/02/26 11:19:08;;;;;;;3.43;2.97;;;;;;;8.20;71.61;99939.06;5099064;28;20208;-78
2024/02/26 11:21:40;;;;;;;5.10;3.53;;;;;;;8.19;73.14;99946.94;5096641;28;20239;-77
2024/02/26 11:24:08;;;;;;;4.10;3.70;;;;;;;8.29;72.72;99923.31;5095763;28;20224;-78
2024/02/26 11:26:39;;;;;;;3.80;3.50;;;;;;;8.34;72.39;99931.91;5097649;28;20204;-77
2024/02/26 11:29:10;;;;;;;3.70;3.40;;;;;;;8.41;73.25;99934.41;5099423;28;20623;-79
2024/02/26 11:31:39;;;;;;;3.70;3.40;;;;;;;8.50;72.37;99929.91;5099837;28;20306;-78
2024/02/26 11:34:05;;;;;;;4.10;3.00;;;;;;;8.56;71.67;99949.72;5096046;28;20216;-78
2024/02/26 11:36:31;;;;;;;3.30;3.03;;;;;;;8.55;71.25;99972.28;5097709;28;20231;-78